Time;durP1;ratioP1;P1;durP2;ratioP2;P2;SDS_P1;SDS_P2;PMS_P1;PMS_P2;Temp;Humidity;BMP_temperature;BMP_pressure;BME280_temperature;BME280_humidity;BME280_pressure;Samples;Min_cycle;Max_cycle;Signal;HPM_P1;HPM_P2
2023/02/14 00:01:09;;;;;;;36.40;13.93;;;;;;;-1.17;100.00;100682.94;5057495;28;20024;-75
2023/02/14 00:03:34;;;;;;;36.72;13.75;;;;;;;-0.97;100.00;100683.66;5059873;28;20085;-74
2023/02/14 00:06:07;;;;;;;35.75;14.20;;;;;;;-0.91;100.00;100697.47;5043373;28;20484;-75
2023/02/14 00:08:32;;;;;;;30.95;13.38;;;;;;;-1.05;100.00;100680.56;5053577;28;20098;-75
2023/02/14 00:10:58;;;;;;;37.50;14.02;;;;;;;-1.09;100.00;100703.78;5042998;28;20480;-72
2023/02/14 00:13:23;;;;;;;35.65;14.15;;;;;;;-1.09;100.00;100687.00;5053593;28;20039;-75
2023/02/14 00:15:48;;;;;;;33.30;14.20;;;;;;;-0.98;100.00;100698.75;5052978;28;20036;-75
2023/02/14 00:18:14;;;;;;;34.85;14.30;;;;;;;-1.01;100.00;100687.44;5062571;28;20099;-75
2023/02/14 00:20:39;;;;;;;35.15;14.45;;;;;;;-1.14;100.00;100682.78;5062543;28;20021;-75
2023/02/14 00:23:04;;;;;;;34.25;13.60;;;;;;;-1.10;100.00;100683.50;5038279;28;20466;-76
2023/02/14 00:25:29;;;;;;;41.60;15.15;;;;;;;-1.08;100.00;100678.09;5037487;28;20029;-76
2023/02/14 00:27:55;;;;;;;42.78;14.98;;;;;;;-0.99;100.00;100697.06;5033588;28;20022;-75
2023/02/14 00:30:20;;;;;;;31.20;13.27;;;;;;;-1.19;100.00;100673.34;5046100;28;20383;-76
2023/02/14 00:32:45;;;;;;;34.40;14.10;;;;;;;-1.24;100.00;100686.88;5054466;28;20037;-75
2023/02/14 00:35:11;;;;;;;38.72;14.93;;;;;;;-1.23;100.00;100693.91;5035609;28;20017;-74
2023/02/14 00:37:36;;;;;;;35.78;14.13;;;;;;;-1.27;100.00;100688.84;5053479;28;20024;-75
2023/02/14 00:40:03;;;;;;;33.13;13.18;;;;;;;-1.23;100.00;100704.53;5040872;28;20028;-75
2023/02/14 00:42:28;;;;;;;31.38;12.95;;;;;;;-1.32;100.00;100700.56;5035300;28;20054;-75
2023/02/14 00:44:53;;;;;;;34.22;13.30;;;;;;;-1.46;100.00;100684.50;5055282;28;20028;-75
2023/02/14 00:47:18;;;;;;;32.85;13.73;;;;;;;-1.37;100.00;100697.28;5053029;28;20032;-76
2023/02/14 00:49:44;;;;;;;36.20;13.48;;;;;;;-1.41;100.00;100686.94;5061356;28;20025;-76
2023/02/14 00:52:09;;;;;;;33.95;13.35;;;;;;;-1.45;100.00;100698.63;5045215;28;20661;-74
2023/02/14 00:54:34;;;;;;;38.00;14.63;;;;;;;-1.39;100.00;100687.69;5035827;28;20021;-76
2023/02/14 00:56:59;;;;;;;33.67;13.43;;;;;;;-1.37;100.00;100697.28;5049367;28;20032;-75
2023/02/14 00:59:25;;;;;;;35.63;14.55;;;;;;;-1.39;100.00;100685.03;5042956;28;20068;-77
2023/02/14 01:01:50;;;;;;;32.00;12.98;;;;;;;-1.43;100.00;100681.69;5039950;28;20497;-75
2023/02/14 01:04:15;;;;;;;33.95;12.30;;;;;;;-1.60;100.00;100660.47;5055210;28;20418;-76
2023/02/14 01:06:41;;;;;;;37.35;13.35;;;;;;;-1.60;100.00;100673.72;5056142;28;20043;-75
2023/02/14 01:09:06;;;;;;;31.77;13.45;;;;;;;-1.56;100.00;100683.25;5039605;28;20120;-76
2023/02/14 01:11:32;;;;;;;33.17;12.98;;;;;;;-1.55;100.00;100682.31;5035106;28;20077;-75
2023/02/14 01:13:58;;;;;;;35.88;14.23;;;;;;;-1.55;100.00;100687.63;5040850;28;20294;-74
2023/02/14 01:16:25;;;;;;;34.25;13.80;;;;;;;-1.59;100.00;100694.03;5040780;28;20058;-76
2023/02/14 01:18:51;;;;;;;31.05;12.52;;;;;;;-1.64;100.00;100683.66;5062363;28;20505;-74
2023/02/14 01:21:25;;;;;;;32.17;13.00;;;;;;;-1.68;100.00;100687.41;5071635;28;20032;-75
2023/02/14 01:23:53;;;;;;;31.45;12.15;;;;;;;-1.93;100.00;100663.09;5070349;28;20037;-75
2023/02/14 01:26:20;;;;;;;36.33;13.18;;;;;;;-1.83;100.00;100677.59;5050208;28;20036;-76
2023/02/14 01:28:46;;;;;;;28.67;12.23;;;;;;;-1.84;100.00;100686.47;5044747;28;20033;-75
2023/02/14 01:31:18;;;;;;;34.90;12.27;;;;;;;-1.72;100.00;100682.34;5067619;28;20025;-75
2023/02/14 01:33:44;;;;;;;32.35;13.52;;;;;;;-1.67;100.00;100699.75;5074922;28;20563;-75
2023/02/14 01:36:22;;;;;;;31.40;11.98;;;;;;;-1.86;100.00;100677.72;5047325;28;20402;-75
2023/02/14 01:38:51;;;;;;;31.42;12.25;;;;;;;-1.90;100.00;100674.38;5056624;28;20029;-75
2023/02/14 01:41:16;;;;;;;38.53;13.27;;;;;;;-1.87;100.00;100681.31;5042256;28;20020;-76
2023/02/14 01:43:49;;;;;;;34.05;13.45;;;;;;;-1.87;100.00;100686.63;5085871;28;20078;-76
2023/02/14 01:46:15;;;;;;;35.72;13.20;;;;;;;-1.90;100.00;100690.31;5062214;28;20028;-75
2023/02/14 01:48:40;;;;;;;33.17;12.55;;;;;;;-1.93;100.00;100686.94;5064598;28;20291;-77
2023/02/14 01:51:06;;;;;;;34.47;12.77;;;;;;;-1.94;100.00;100686.06;5069612;28;20049;-75
2023/02/14 01:53:32;;;;;;;32.50;13.75;;;;;;;-2.09;100.00;100674.47;5061672;28;20055;-76
2023/02/14 01:56:13;;;;;;;32.65;12.88;;;;;;;-2.19;100.00;100661.75;5056159;28;20055;-74
2023/02/14 01:58:43;;;;;;;35.30;13.13;;;;;;;-2.08;100.00;100688.56;5054311;28;20029;-75
2023/02/14 02:01:12;;;;;;;32.85;12.60;;;;;;;-2.17;100.00;100687.25;5073005;28;20190;-76
2023/02/14 02:03:50;;;;;;;27.10;10.30;;;;;;;-2.15;100.00;100687.16;5057836;28;20024;-76
2023/02/14 02:06:29;;;;;;;33.78;12.50;;;;;;;-2.15;100.00;100693.31;5046959;28;20052;-76
2023/02/14 02:09:20;;;;;;;37.22;12.60;;;;;;;-1.99;100.00;100693.44;5054786;28;20052;-75
2023/02/14 02:11:45;;;;;;;31.45;12.50;;;;;;;-1.97;100.00;100686.22;5037669;28;20060;-75
2023/02/14 02:14:18;;;;;;;31.27;12.27;;;;;;;-1.98;100.00;100705.75;5061972;28;20051;-75
2023/02/14 02:16:58;;;;;;;33.13;12.10;;;;;;;-2.10;100.00;100699.25;5041915;28;20033;-75
2023/02/14 02:19:42;;;;;;;31.85;11.88;;;;;;;-2.14;100.00;100695.03;5018274;28;20388;-77
2023/02/14 02:22:56;;;;;;;29.50;11.20;;;;;;;-2.16;100.00;100696.91;5051562;28;20024;-77
2023/02/14 02:25:43;;;;;;;29.90;12.65;;;;;;;-2.13;100.00;100698.53;5024270;28;20052;-77
2023/02/14 02:28:37;;;;;;;34.47;12.93;;;;;;;-2.17;100.00;100689.00;5038008;28;20023;-77
2023/02/14 02:31:19;;;;;;;34.17;11.77;;;;;;;-2.09;100.00;100694.81;5042629;28;20203;-75
2023/02/14 02:33:44;;;;;;;29.80;12.30;;;;;;;-2.12;100.00;100703.78;5041508;28;20092;-75
2023/02/14 02:36:28;;;;;;;36.38;12.75;;;;;;;-2.21;100.00;100689.16;5063962;28;20051;-75
2023/02/14 02:39:24;;;;;;;34.65;12.70;;;;;;;-2.31;100.00;100687.03;5056271;28;20025;-76
2023/02/14 02:42:26;;;;;;;34.17;12.18;;;;;;;-2.25;100.00;100689.41;5040543;28;20032;-76
2023/02/14 02:45:12;;;;;;;33.55;12.77;;;;;;;-2.18;100.00;100692.59;5002872;28;20040;-75
2023/02/14 02:48:03;;;;;;;34.38;13.05;;;;;;;-2.32;100.00;100691.50;5026158;28;20534;-75
2023/02/14 02:53:42;;;;;;;34.63;12.32;;;;;;;-2.37;100.00;100700.63;5054216;28;20036;-75
2023/02/14 02:59:03;;;;;;;37.83;12.80;;;;;;;-2.46;100.00;100684.22;5050211;28;20246;-75
2023/02/14 03:01:36;;;;;;;39.88;13.80;;;;;;;-2.59;100.00;100685.75;5049878;28;20078;-75
2023/02/14 03:06:50;;;;;;;39.75;14.50;;;;;;;-2.31;100.00;100700.31;5055162;28;20075;-75
2023/02/14 03:09:40;;;;;;;33.88;13.88;;;;;;;-2.37;100.00;100695.31;5053666;28;20497;-75
2023/02/14 03:12:21;;;;;;;36.63;14.45;;;;;;;-2.45;100.00;100685.06;5020571;28;20083;-75
2023/02/14 03:15:18;;;;;;;38.88;12.80;;;;;;;-2.57;100.00;100697.09;5014137;28;20029;-76
2023/02/14 03:18:06;;;;;;;30.15;12.13;;;;;;;-2.55;100.00;100700.56;5044391;28;20032;-75
2023/02/14 03:20:34;;;;;;;35.08;14.02;;;;;;;-2.65;100.00;100699.28;5049842;28;20053;-76
2023/02/14 03:23:24;;;;;;;34.13;12.68;;;;;;;-2.67;100.00;100704.66;5031507;28;20108;-77
2023/02/14 03:26:11;;;;;;;29.73;12.30;;;;;;;-2.65;100.00;100689.56;5043246;28;20677;-76
2023/02/14 03:28:52;;;;;;;35.40;12.63;;;;;;;-2.60;100.00;100704.34;5026357;28;20021;-75
2023/02/14 03:31:31;;;;;;;37.15;13.07;;;;;;;-2.69;100.00;100687.97;5055749;28;20042;-75
2023/02/14 03:34:11;;;;;;;36.65;12.80;;;;;;;-2.62;100.00;100698.25;5029002;28;20028;-75
2023/02/14 03:36:42;;;;;;;35.47;12.52;;;;;;;-2.69;100.00;100695.06;5046253;28;20070;-76
2023/02/14 03:39:18;;;;;;;34.05;12.02;;;;;;;-2.72;100.00;100700.50;5049620;28;20017;-75
2023/02/14 03:41:51;;;;;;;37.63;12.95;;;;;;;-2.89;100.00;100686.25;5043196;28;20036;-75
2023/02/14 03:44:21;;;;;;;34.30;12.65;;;;;;;-2.82;100.00;100697.44;5045082;28;20051;-75
2023/02/14 03:46:53;;;;;;;38.53;13.23;;;;;;;-2.71;100.00;100691.63;5033076;28;20372;-75
2023/02/14 03:49:23;;;;;;;35.47;13.10;;;;;;;-2.68;100.00;100673.78;5051177;28;20039;-74
2023/02/14 03:51:51;;;;;;;39.05;12.50;;;;;;;-2.85;100.00;100667.59;5059403;28;20461;-76
2023/02/14 03:54:19;;;;;;;32.22;11.95;;;;;;;-2.80;100.00;100677.03;5033548;28;20036;-75
2023/02/14 03:56:55;;;;;;;32.35;11.93;;;;;;;-2.91;100.00;100661.66;5038551;28;20025;-75
2023/02/14 03:59:24;;;;;;;33.72;12.40;;;;;;;-3.07;100.00;100642.09;5052906;28;20017;-76
2023/02/14 04:01:54;;;;;;;;;;;;;;;-2.79;100.00;100668.13;5052002;28;20024;-75
2023/02/14 04:04:23;;;;;;;34.85;11.38;;;;;;;-2.79;100.00;100662.84;5043785;28;20351;-75
2023/02/14 04:06:48;;;;;;;31.73;12.35;;;;;;;-2.78;100.00;100666.34;5033462;28;20719;-75
2023/02/14 04:09:14;;;;;;;34.15;12.60;;;;;;;-2.89;100.00;100673.00;5032748;28;20048;-76
2023/02/14 04:11:39;;;;;;;31.00;12.27;;;;;;;-3.12;100.00;100659.97;5049227;28;20032;-74
2023/02/14 04:14:05;;;;;;;29.67;11.43;;;;;;;-3.31;100.00;100646.72;5029618;28;20479;-77
2023/02/14 04:19:21;;;;;;;33.22;12.55;;;;;;;-3.15;100.00;100681.28;5040602;28;20222;-75
2023/02/14 04:19:22;;;;;;;36.80;12.13;;;;;;;-3.19;100.00;100663.84;5049518;28;20036;-75
2023/02/14 04:21:49;;;;;;;32.08;12.38;;;;;;;-3.19;100.00;100663.84;5051295;28;20043;-75
2023/02/14 04:24:14;;;;;;;34.65;13.27;;;;;;;-3.23;100.00;100681.66;5043236;28;20028;-76
2023/02/14 04:26:52;;;;;;;32.10;12.82;;;;;;;-3.16;100.00;100684.88;5054464;28;20403;-76
2023/02/14 04:29:20;;;;;;;33.45;12.68;;;;;;;-3.19;100.00;100688.53;5036613;28;20017;-76
2023/02/14 04:31:46;;;;;;;32.77;12.17;;;;;;;-3.19;100.00;100691.19;5058613;28;20092;-74
2023/02/14 04:34:12;;;;;;;31.98;12.55;;;;;;;-3.35;100.00;100674.28;5052161;28;20037;-75
2023/02/14 04:36:37;;;;;;;34.53;11.15;;;;;;;-3.22;100.00;100671.91;5062922;28;20051;-75
2023/02/14 04:39:06;;;;;;;29.48;12.60;;;;;;;-3.35;100.00;100671.63;5067578;28;20017;-75
2023/02/14 04:41:31;;;;;;;31.00;12.30;;;;;;;-3.39;100.00;100667.38;5054037;28;20009;-76
2023/02/14 04:43:56;;;;;;;32.08;12.35;;;;;;;-3.28;100.00;100673.06;5069789;28;20043;-75
2023/02/14 04:46:21;;;;;;;41.03;13.88;;;;;;;-3.13;100.00;100676.78;5054389;28;20021;-75
2023/02/14 04:48:47;;;;;;;32.40;12.30;;;;;;;-3.16;100.00;100682.25;5054152;28;20014;-75
2023/02/14 04:51:12;;;;;;;31.02;13.38;;;;;;;-3.09;100.00;100673.09;5040120;28;20414;-78
2023/02/14 04:53:39;;;;;;;29.50;10.90;;;;;;;-3.08;100.00;100675.66;5063837;28;20035;-80
2023/02/14 04:56:06;;;;;;;29.85;11.23;;;;;;;-3.16;100.00;100682.25;5039012;28;20020;-80
2023/02/14 04:58:34;;;;;;;29.88;11.65;;;;;;;-3.22;100.00;100685.16;5049904;28;20040;-79
2023/02/14 05:01:00;;;;;;;22.67;9.10;;;;;;;-3.33;100.00;100675.94;5050602;28;20025;-79
2023/02/14 05:06:17;;;;;;;33.95;11.93;;;;;;;-3.43;100.00;100650.81;5012085;28;20454;-77
2023/02/14 05:08:42;;;;;;;35.28;12.88;;;;;;;-3.31;100.00;100646.72;5040684;28;20024;-76
2023/02/14 05:11:08;;;;;;;31.25;12.95;;;;;;;-3.21;100.00;100657.75;5045868;28;20020;-76
2023/02/14 05:13:33;;;;;;;35.10;12.50;;;;;;;-3.29;100.00;100639.59;5026466;28;20028;-74
2023/02/14 05:15:58;;;;;;;36.38;12.50;;;;;;;-3.03;100.00;100651.63;5036494;28;20116;-76
2023/02/14 05:18:24;;;;;;;37.85;12.23;;;;;;;-3.18;100.00;100655.81;5036561;28;20024;-76
2023/02/14 05:20:51;;;;;;;33.90;12.07;;;;;;;-3.29;100.00;100666.06;5036046;28;20024;-76
2023/02/14 05:23:16;;;;;;;29.58;12.07;;;;;;;-3.54;100.00;100660.97;5045472;28;20040;-77
2023/02/14 05:25:42;;;;;;;29.55;11.48;;;;;;;-3.45;100.00;100676.47;5036416;28;20029;-77
2023/02/14 05:28:08;;;;;;;30.13;11.43;;;;;;;-3.62;100.00;100678.97;5038319;28;20021;-76
2023/02/14 05:30:33;;;;;;;27.83;12.07;;;;;;;-3.64;100.00;100670.25;5048182;28;20021;-77
2023/02/14 05:32:59;;;;;;;36.80;13.70;;;;;;;-3.68;100.00;100653.66;5058564;28;20075;-77
2023/02/14 05:35:24;;;;;;;31.42;12.48;;;;;;;-3.73;100.00;100662.72;5029136;28;20040;-77
2023/02/14 05:37:50;;;;;;;34.38;11.93;;;;;;;-3.75;100.00;100657.50;5023816;28;20115;-76
2023/02/14 05:40:15;;;;;;;29.88;12.27;;;;;;;-3.72;100.00;100656.50;5039788;28;20045;-80
2023/02/14 05:42:41;;;;;;;31.10;12.35;;;;;;;-3.79;100.00;100656.78;5029698;28;20059;-79
2023/02/14 05:45:07;;;;;;;29.88;11.63;;;;;;;-3.70;100.00;100684.59;5032530;28;20037;-76
2023/02/14 05:47:33;;;;;;;32.00;11.63;;;;;;;-3.68;100.00;100676.63;5034047;28;20032;-77
2023/02/14 05:49:58;;;;;;;30.17;11.13;;;;;;;-3.67;100.00;100694.19;5033181;28;20027;-77
2023/02/14 05:52:24;;;;;;;34.35;12.70;;;;;;;-3.55;100.00;100688.38;5058678;28;20040;-77
2023/02/14 05:54:49;;;;;;;31.17;12.07;;;;;;;-3.51;100.00;100684.69;5041938;28;20079;-80
2023/02/14 05:57:15;;;;;;;30.20;11.50;;;;;;;-3.65;100.00;100687.91;5060137;28;20078;-76
2023/02/14 05:59:40;;;;;;;35.75;11.32;;;;;;;-3.71;100.00;100695.28;5060576;28;20025;-76
2023/02/14 06:02:05;;;;;;;30.15;11.63;;;;;;;-3.93;100.00;100667.09;5050374;28;20029;-76
2023/02/14 06:04:31;;;;;;;27.67;10.32;;;;;;;-3.87;100.00;100672.13;5032442;28;20031;-75
2023/02/14 06:06:56;;;;;;;29.02;11.63;;;;;;;-3.84;100.00;100687.84;5036942;28;20619;-79
2023/02/14 06:09:21;;;;;;;32.13;12.15;;;;;;;-3.65;100.00;100695.84;5055445;28;20075;-83
2023/02/14 06:11:47;;;;;;;30.75;11.90;;;;;;;-3.90;100.00;100674.03;5045181;28;20029;-77
2023/02/14 06:14:13;;;;;;;37.60;12.18;;;;;;;-4.06;100.00;100664.13;5056023;28;20043;-82
2023/02/14 06:16:59;;;;;;;32.35;11.68;;;;;;;-3.83;100.00;100708.06;5046804;28;20082;-81
2023/02/14 06:19:24;;;;;;;32.22;12.00;;;;;;;-3.98;100.00;100692.88;5044938;28;20371;-81
2023/02/14 06:21:49;;;;;;;34.22;12.38;;;;;;;-3.90;100.00;100697.81;5040672;28;20465;-79
2023/02/14 06:24:15;;;;;;;36.45;12.88;;;;;;;-4.05;100.00;100665.81;5035571;28;20037;-79
2023/02/14 06:26:40;;;;;;;31.70;12.43;;;;;;;-3.88;100.00;100699.47;5063289;28;20111;-77
2023/02/14 06:29:05;;;;;;;31.17;11.50;;;;;;;-3.84;100.00;100709.00;5049444;28;20405;-79
2023/02/14 06:31:31;;;;;;;32.88;11.65;;;;;;;-3.85;100.00;100704.66;5039966;28;20028;-78
2023/02/14 06:33:56;;;;;;;30.63;10.55;;;;;;;-3.94;100.00;100683.88;5020936;28;20067;-80
2023/02/14 06:36:22;;;;;;;29.45;11.02;;;;;;;-4.02;100.00;100676.28;5036828;28;20657;-81
2023/02/14 06:38:48;;;;;;;31.00;11.55;;;;;;;-3.84;100.00;100706.38;5042159;28;20029;-79
2023/02/14 06:41:15;;;;;;;31.48;11.88;;;;;;;-3.84;100.00;100693.13;5067449;28;20098;-80
2023/02/14 06:43:42;;;;;;;31.85;11.90;;;;;;;-3.65;100.00;100710.88;5017683;28;20476;-79
2023/02/14 06:46:08;;;;;;;34.83;12.98;;;;;;;-3.61;100.00;100710.69;5027826;28;20029;-76
2023/02/14 06:48:33;;;;;;;32.08;12.95;;;;;;;-3.62;100.00;100708.94;5031548;28;20482;-78
2023/02/14 06:50:59;;;;;;;31.23;12.93;;;;;;;-3.61;100.00;100680.72;5035304;28;20067;-82
2023/02/14 06:53:24;;;;;;;36.92;13.40;;;;;;;-3.31;100.00;100716.38;5040564;28;20102;-82
2023/02/14 06:55:49;;;;;;;37.47;13.90;;;;;;;-3.39;100.00;100692.06;5051272;28;20037;-80
2023/02/14 06:58:15;;;;;;;41.23;13.70;;;;;;;-3.32;100.00;100700.59;5065656;28;20021;-80
2023/02/14 07:00:40;;;;;;;33.40;13.73;;;;;;;-3.24;100.00;100673.78;5050243;28;20055;-75
2023/02/14 07:03:07;;;;;;;35.22;13.65;;;;;;;-3.20;100.00;100664.75;5067338;28;20032;-73
2023/02/14 07:05:32;;;;;;;35.33;14.13;;;;;;;-3.00;100.00;100682.41;5066584;28;20048;-75
2023/02/14 07:07:58;;;;;;;40.95;15.48;;;;;;;-2.84;100.00;100682.53;5048198;28;20020;-77
2023/02/14 07:10:24;;;;;;;31.48;14.50;;;;;;;-2.79;100.00;100670.78;5060194;28;20013;-79
2023/02/14 07:12:49;;;;;;;45.80;13.95;;;;;;;-2.37;100.00;100695.31;5058119;28;20044;-78
2023/02/14 07:15:16;;;;;;;30.75;13.35;;;;;;;-1.37;100.00;100683.16;5067966;28;20020;-80
2023/02/14 07:17:42;;;;;;;42.88;13.90;;;;;;;-0.16;100.00;100671.13;5036759;28;20017;-79
2023/02/14 07:23:31;;;;;;;32.50;13.05;;;;;;;2.40;100.00;100651.38;5067033;28;20036;-77
2023/02/14 07:26:00;;;;;;;29.88;12.00;;;;;;;2.62;100.00;100650.75;5044713;28;20034;-77
2023/02/14 07:28:25;;;;;;;28.55;11.88;;;;;;;2.98;100.00;100611.69;5058104;28;20104;-76
2023/02/14 07:30:51;;;;;;;26.27;11.25;;;;;;;3.92;100.00;100622.56;5064964;28;20071;-79
2023/02/14 07:33:16;;;;;;;28.02;10.50;;;;;;;4.75;100.00;100623.34;5054263;28;20092;-77
2023/02/14 07:35:42;;;;;;;24.13;10.50;;;;;;;5.49;100.00;100635.22;5054397;28;20028;-77
2023/02/14 07:38:09;;;;;;;22.33;10.23;;;;;;;5.86;100.00;100601.78;5053394;28;20031;-77
2023/02/14 07:40:34;;;;;;;21.80;10.70;;;;;;;5.72;100.00;100625.28;5056792;28;20012;-76
2023/02/14 07:43:00;;;;;;;17.88;9.65;;;;;;;5.93;100.00;100636.09;5053353;28;20029;-76
2023/02/14 07:45:26;;;;;;;19.33;9.68;;;;;;;6.82;100.00;100629.47;5077237;28;20017;-75
2023/02/14 07:47:53;;;;;;;16.17;9.23;;;;;;;6.98;100.00;100629.81;5060575;28;20012;-76
2023/02/14 07:50:20;;;;;;;15.55;8.57;;;;;;;7.57;100.00;100620.94;5070006;28;20103;-75
2023/02/14 07:52:46;;;;;;;15.65;9.38;;;;;;;8.38;88.41;100639.50;5088599;28;20033;-75
2023/02/14 07:55:11;;;;;;;15.88;9.15;;;;;;;8.33;74.69;100620.22;5052940;28;20513;-76
2023/02/14 07:57:36;;;;;;;14.77;9.07;;;;;;;9.14;70.91;100619.72;5051875;28;20043;-77
2023/02/14 08:00:04;;;;;;;16.27;9.98;;;;;;;8.71;69.81;100640.06;5063966;28;20036;-73
2023/02/14 08:02:29;;;;;;;15.60;10.48;;;;;;;8.98;66.28;100626.59;5065703;28;20024;-73
2023/02/14 08:04:57;;;;;;;20.15;10.60;;;;;;;9.93;65.00;100640.72;5078580;28;20016;-79
2023/02/14 08:08:04;;;;;;;22.45;11.82;;;;;;;10.20;61.55;100601.91;5063000;28;20088;-81
2023/02/14 08:12:57;;;;;;;20.40;11.23;;;;;;;9.87;59.85;100527.75;5001311;28;20148;-81
2023/02/14 08:13:57;;;;;;;19.63;11.85;;;;;;;10.96;57.55;100603.09;4987647;28;20030;-80
2023/02/14 08:16:22;;;;;;;19.40;12.02;;;;;;;10.42;57.04;100537.50;5055308;28;20060;-80
2023/02/14 08:18:48;;;;;;;19.42;12.45;;;;;;;11.71;54.96;100580.63;5068268;28;20029;-78
2023/02/14 08:21:15;;;;;;;18.67;11.45;;;;;;;11.91;54.52;100594.78;5052678;28;20096;-77
2023/02/14 08:23:42;;;;;;;18.23;11.93;;;;;;;12.20;52.78;100600.53;5058295;28;20083;-78
2023/02/14 08:26:08;;;;;;;19.30;12.32;;;;;;;12.59;53.11;100628.88;5042217;28;20036;-78
2023/02/14 08:28:34;;;;;;;25.92;12.35;;;;;;;11.66;53.82;100626.38;5056347;28;20013;-78
2023/02/14 08:31:01;;;;;;;21.63;12.55;;;;;;;11.58;53.89;100628.09;5063545;28;20029;-79
2023/02/14 08:33:27;;;;;;;19.33;12.27;;;;;;;11.98;54.13;100631.91;5058863;28;20040;-78
2023/02/14 08:35:52;;;;;;;18.40;12.27;;;;;;;12.24;53.79;100615.50;5058080;28;20033;-80
2023/02/14 08:38:18;;;;;;;16.00;11.32;;;;;;;14.16;50.29;100612.53;5077533;28;20047;-78
2023/02/14 08:40:44;;;;;;;20.02;13.25;;;;;;;14.56;48.51;100590.59;5041445;28;20033;-79
2023/02/14 08:43:09;;;;;;;18.58;12.38;;;;;;;14.27;48.82;100599.53;5037286;28;20029;-79
2023/02/14 08:45:35;;;;;;;19.27;13.07;;;;;;;14.98;46.92;100595.41;5037379;28;20036;-80
2023/02/14 08:48:03;;;;;;;19.73;13.95;;;;;;;15.49;45.95;100603.66;5052185;28;20087;-79
2023/02/14 08:50:29;;;;;;;21.38;14.05;;;;;;;14.90;46.22;100603.69;5026355;28;20074;-77
2023/02/14 08:52:54;;;;;;;18.92;13.20;;;;;;;14.61;47.21;100610.81;5025547;28;20034;-72
2023/02/14 08:55:19;;;;;;;18.20;12.35;;;;;;;14.40;47.81;100602.47;5052262;28;20036;-79
2023/02/14 08:57:48;;;;;;;16.25;12.20;;;;;;;15.39;47.62;100600.38;5046359;28;20747;-80
2023/02/14 09:00:14;;;;;;;17.02;12.20;;;;;;;16.44;43.92;100599.81;5012033;28;20092;-78
2023/02/14 09:02:39;;;;;;;19.15;12.68;;;;;;;16.95;43.46;100582.34;5047056;28;20601;-79
2023/02/14 09:05:06;;;;;;;17.13;11.65;;;;;;;17.93;42.09;100571.16;5041693;28;20070;-78
2023/02/14 09:07:32;;;;;;;18.63;12.07;;;;;;;18.32;42.89;100602.38;5042980;28;20161;-77
2023/02/14 09:09:58;;;;;;;15.23;11.65;;;;;;;18.90;40.97;100591.59;5054769;28;20021;-74
2023/02/14 09:12:23;;;;;;;16.80;12.20;;;;;;;17.91;41.80;100596.00;5034822;28;20024;-72
2023/02/14 09:14:48;;;;;;;16.83;11.45;;;;;;;17.97;42.05;100599.78;5055192;28;20033;-76
2023/02/14 09:17:14;;;;;;;17.05;12.05;;;;;;;19.06;40.76;100590.28;5035987;28;20037;-78
2023/02/14 09:19:40;;;;;;;14.95;11.35;;;;;;;19.19;40.29;100579.28;5054146;28;20021;-78
2023/02/14 09:22:07;;;;;;;15.75;11.82;;;;;;;18.91;40.87;100586.94;5054517;28;20021;-80
2023/02/14 09:24:34;;;;;;;14.48;11.38;;;;;;;19.19;40.88;100581.19;5040405;28;20021;-74
2023/02/14 09:27:00;;;;;;;14.30;10.68;;;;;;;20.34;38.69;100586.69;5056397;28;20068;-79
2023/02/14 09:29:27;;;;;;;13.63;11.07;;;;;;;19.90;39.90;100581.06;5038336;28;20021;-79
2023/02/14 09:31:57;;;;;;;14.48;11.98;;;;;;;20.00;38.89;100568.75;5046534;28;20087;-76
2023/02/14 09:34:22;;;;;;;13.05;10.88;;;;;;;21.50;36.95;100557.56;5036880;28;20651;-79
2023/02/14 09:36:48;;;;;;;14.43;11.63;;;;;;;18.89;41.21;100524.09;5034261;28;20036;-77
2023/02/14 09:39:13;;;;;;;14.60;11.68;;;;;;;18.73;41.09;100574.75;5037863;28;20022;-78
2023/02/14 09:42:07;;;;;;;14.07;10.90;;;;;;;20.70;38.54;100569.47;5051626;28;20105;-76
2023/02/14 09:44:50;;;;;;;13.45;10.75;;;;;;;20.32;39.18;100570.41;5034766;28;20079;-78
2023/02/14 09:47:34;;;;;;;14.25;11.50;;;;;;;21.22;37.63;100571.84;5024173;28;20056;-74
2023/02/14 09:50:01;;;;;;;16.30;11.40;;;;;;;21.86;36.27;100564.03;5044535;28;20064;-75
2023/02/14 09:52:29;;;;;;;14.27;10.73;;;;;;;21.86;36.82;100564.88;5045589;28;20024;-75
2023/02/14 09:55:00;;;;;;;13.13;10.10;;;;;;;23.55;34.73;100559.72;5057984;28;20048;-75
2023/02/14 09:57:44;;;;;;;12.68;10.63;;;;;;;22.48;35.63;100563.72;5026236;28;20083;-74
2023/02/14 10:00:36;;;;;;;13.45;10.25;;;;;;;24.30;34.52;100558.66;5034642;28;20028;-75
2023/02/14 10:03:31;;;;;;;13.75;10.20;;;;;;;21.14;35.31;100563.91;5046806;28;20036;-77
2023/02/14 10:06:04;;;;;;;12.75;10.68;;;;;;;20.69;37.93;100555.94;5032651;28;20031;-73
2023/02/14 10:08:49;;;;;;;11.95;9.60;;;;;;;21.85;37.24;100548.56;5051458;28;20036;-73
2023/02/14 10:11:19;;;;;;;12.15;9.55;;;;;;;23.54;34.93;100527.66;5033138;28;20025;-75
2023/02/14 10:13:49;;;;;;;12.23;10.38;;;;;;;23.26;34.99;100532.09;5028872;28;20035;-77
2023/02/14 10:16:21;;;;;;;12.30;10.38;;;;;;;21.07;37.36;100535.63;5034101;28;20025;-74
2023/02/14 10:18:58;;;;;;;12.93;10.15;;;;;;;22.85;36.24;100522.91;5032712;28;20036;-74
2023/02/14 10:21:32;;;;;;;12.98;9.63;;;;;;;21.71;36.82;100541.59;5057662;28;20032;-78
2023/02/14 10:24:16;;;;;;;13.27;10.48;;;;;;;21.63;36.60;100538.09;5048558;28;20036;-77
2023/02/14 10:26:43;;;;;;;12.57;10.70;;;;;;;21.88;36.77;100520.56;5058318;28;20074;-74
2023/02/14 10:29:14;;;;;;;11.60;9.82;;;;;;;23.10;35.04;100519.06;5052786;28;20505;-75
2023/02/14 10:31:54;;;;;;;15.38;10.85;;;;;;;22.36;35.52;100521.50;5039689;28;20501;-75
2023/02/14 10:34:25;;;;;;;12.65;10.55;;;;;;;24.32;33.92;100525.22;5057919;28;20474;-76
2023/02/14 10:37:10;;;;;;;13.23;10.90;;;;;;;24.05;33.22;100512.03;5044886;28;20029;-77
2023/02/14 10:39:58;;;;;;;15.60;10.75;;;;;;;23.36;34.51;100512.97;5065992;28;20024;-75
2023/02/14 10:42:30;;;;;;;14.27;10.30;;;;;;;25.38;32.96;100510.38;5032568;28;20414;-77
2023/02/14 10:45:20;;;;;;;13.68;10.48;;;;;;;25.63;32.81;100501.50;5033789;28;20041;-76
2023/02/14 10:48:08;;;;;;;11.05;9.85;;;;;;;26.18;32.05;100501.19;5064579;28;20451;-76
2023/02/14 10:50:51;;;;;;;11.75;9.75;;;;;;;27.66;30.58;100498.34;5033766;28;20036;-76
2023/02/14 10:53:26;;;;;;;13.00;10.38;;;;;;;27.83;29.50;100483.41;5059536;28;20067;-76
2023/02/14 10:55:59;;;;;;;12.48;10.00;;;;;;;26.81;30.88;100486.66;5066907;28;20031;-73
2023/02/14 10:58:27;;;;;;;10.20;8.98;;;;;;;27.81;29.51;100492.00;5034638;28;20030;-76
2023/02/14 11:01:02;;;;;;;12.25;10.07;;;;;;;26.19;30.14;100486.22;5033364;28;20062;-75
2023/02/14 11:03:28;;;;;;;12.07;9.88;;;;;;;28.71;28.96;100476.63;5043844;28;20028;-76
2023/02/14 11:05:54;;;;;;;14.32;10.70;;;;;;;28.00;29.50;100466.41;5052746;28;20024;-75
2023/02/14 11:08:28;;;;;;;12.05;9.80;;;;;;;28.66;28.20;100476.63;5060350;28;20504;-76
2023/02/14 11:11:06;;;;;;;10.95;9.13;;;;;;;29.12;28.55;100474.56;5062715;28;20039;-75
2023/02/14 11:13:36;;;;;;;13.25;10.65;;;;;;;28.79;29.07;100478.81;5054464;28;20028;-76
2023/02/14 11:16:06;;;;;;;11.60;10.20;;;;;;;25.95;30.57;100485.75;5046518;28;20025;-76
2023/02/14 11:18:34;;;;;;;11.00;9.45;;;;;;;27.64;29.49;100471.91;5054556;28;20042;-76
2023/02/14 11:21:08;;;;;;;;;;;;;;;27.99;29.58;100468.38;5047515;28;20035;-74
2023/02/14 11:23:42;;;;;;;10.02;8.48;;;;;;;28.62;28.30;100460.50;5056277;28;19920;-77
2023/02/14 11:26:13;;;;;;;11.85;9.80;;;;;;;29.22;28.20;100471.72;5048411;28;20025;-76
2023/02/14 11:28:54;;;;;;;11.57;9.98;;;;;;;28.91;27.89;100456.22;5034690;28;20028;-76
2023/02/14 11:31:25;;;;;;;10.57;9.48;;;;;;;29.41;28.02;100444.00;5041760;28;20025;-76
2023/02/14 11:33:53;;;;;;;12.07;9.68;;;;;;;29.27;27.80;100451.34;5028847;28;20178;-76
2023/02/14 11:36:19;;;;;;;11.50;9.25;;;;;;;28.17;28.45;100444.72;5051268;28;20388;-76